sensor_id;sensor_type;location;lat;lon;timestamp;pressure;altitude;pressure_sealevel;temperature;humidity
51147;BME280;37207;53.060;18.726;2023-01-27T00:00:35;101167.64;;;-0.52;100.00
51147;BME280;37207;53.060;18.726;2023-01-27T00:03:20;101167.62;;;-0.52;100.00
51147;BME280;37207;53.060;18.726;2023-01-27T00:05:48;101166.00;;;-0.52;100.00
51147;BME280;37207;53.060;18.726;2023-01-27T00:08:16;101169.27;;;-0.53;100.00
51147;BME280;37207;53.060;18.726;2023-01-27T00:10:43;101171.98;;;-0.53;100.00
51147;BME280;37207;53.060;18.726;2023-01-27T00:13:13;101170.29;;;-0.53;100.00
51147;BME280;37207;53.060;18.726;2023-01-27T00:15:52;101173.62;;;-0.53;100.00
51147;BME280;37207;53.060;18.726;2023-01-27T00:18:19;101170.36;;;-0.55;100.00
51147;BME280;37207;53.060;18.726;2023-01-27T00:20:46;101167.58;;;-0.55;100.00
51147;BME280;37207;53.060;18.726;2023-01-27T00:23:31;101165.09;;;-0.55;100.00
51147;BME280;37207;53.060;18.726;2023-01-27T00:26:18;101171.22;;;-0.55;100.00
51147;BME280;37207;53.060;18.726;2023-01-27T00:28:46;101174.40;;;-0.56;100.00
51147;BME280;37207;53.060;18.726;2023-01-27T00:31:15;101177.96;;;-0.55;100.00
51147;BME280;37207;53.060;18.726;2023-01-27T00:34:01;101177.50;;;-0.56;100.00
51147;BME280;37207;53.060;18.726;2023-01-27T00:36:39;101180.69;;;-0.58;100.00
51147;BME280;37207;53.060;18.726;2023-01-27T00:39:08;101185.41;;;-0.59;100.00
51147;BME280;37207;53.060;18.726;2023-01-27T00:41:36;101183.16;;;-0.60;100.00
51147;BME280;37207;53.060;18.726;2023-01-27T00:44:03;101183.56;;;-0.60;100.00
51147;BME280;37207;53.060;18.726;2023-01-27T00:46:31;101183.56;;;-0.60;100.00
51147;BME280;37207;53.060;18.726;2023-01-27T00:48:58;101182.94;;;-0.60;100.00
51147;BME280;37207;53.060;18.726;2023-01-27T00:51:25;101184.88;;;-0.59;100.00
51147;BME280;37207;53.060;18.726;2023-01-27T00:53:51;101188.52;;;-0.58;100.00
51147;BME280;37207;53.060;18.726;2023-01-27T00:56:18;101186.89;;;-0.58;100.00
51147;BME280;37207;53.060;18.726;2023-01-27T00:58:44;101193.55;;;-0.57;100.00
51147;BME280;37207;53.060;18.726;2023-01-27T01:01:14;101190.77;;;-0.58;100.00
51147;BME280;37207;53.060;18.726;2023-01-27T01:03:41;101192.23;;;-0.59;100.00
51147;BME280;37207;53.060;18.726;2023-01-27T01:06:10;101193.33;;;-0.59;100.00
51147;BME280;37207;53.060;18.726;2023-01-27T01:08:37;101194.64;;;-0.59;100.00
51147;BME280;37207;53.060;18.726;2023-01-27T01:11:06;101194.96;;;-0.60;100.00
51147;BME280;37207;53.060;18.726;2023-01-27T01:13:33;101195.35;;;-0.61;100.00
51147;BME280;37207;53.060;18.726;2023-01-27T01:16:15;101200.23;;;-0.62;100.00
51147;BME280;37207;53.060;18.726;2023-01-27T01:18:42;101201.94;;;-0.63;100.00
51147;BME280;37207;53.060;18.726;2023-01-27T01:21:09;101197.45;;;-0.65;100.00
51147;BME280;37207;53.060;18.726;2023-01-27T01:23:37;101202.10;;;-0.66;100.00
51147;BME280;37207;53.060;18.726;2023-01-27T01:26:05;101200.95;;;-0.67;100.00
51147;BME280;37207;53.060;18.726;2023-01-27T01:28:32;101202.80;;;-0.68;100.00
51147;BME280;37207;53.060;18.726;2023-01-27T01:31:07;101203.42;;;-0.69;100.00
51147;BME280;37207;53.060;18.726;2023-01-27T01:33:35;101204.20;;;-0.69;100.00
51147;BME280;37207;53.060;18.726;2023-01-27T01:36:04;101202.88;;;-0.68;100.00
51147;BME280;37207;53.060;18.726;2023-01-27T01:38:30;101203.45;;;-0.69;100.00
51147;BME280;37207;53.060;18.726;2023-01-27T01:40:57;101204.63;;;-0.71;100.00
51147;BME280;37207;53.060;18.726;2023-01-27T01:43:24;101201.91;;;-0.71;100.00
51147;BME280;37207;53.060;18.726;2023-01-27T01:45:58;101203.77;;;-0.71;100.00
51147;BME280;37207;53.060;18.726;2023-01-27T01:48:51;101202.68;;;-0.70;100.00
51147;BME280;37207;53.060;18.726;2023-01-27T01:51:23;101200.43;;;-0.70;100.00
51147;BME280;37207;53.060;18.726;2023-01-27T01:54:08;101199.13;;;-0.72;100.00
51147;BME280;37207;53.060;18.726;2023-01-27T01:56:41;101199.20;;;-0.72;100.00
51147;BME280;37207;53.060;18.726;2023-01-27T01:59:16;101199.52;;;-0.74;100.00
51147;BME280;37207;53.060;18.726;2023-01-27T02:01:45;101198.52;;;-0.73;100.00
51147;BME280;37207;53.060;18.726;2023-01-27T02:04:16;101199.28;;;-0.74;100.00
51147;BME280;37207;53.060;18.726;2023-01-27T02:07:04;101199.67;;;-0.73;100.00
51147;BME280;37207;53.060;18.726;2023-01-27T02:09:33;101196.10;;;-0.74;100.00
51147;BME280;37207;53.060;18.726;2023-01-27T02:11:59;101200.60;;;-0.74;100.00
51147;BME280;37207;53.060;18.726;2023-01-27T02:14:26;101203.94;;;-0.75;100.00
51147;BME280;37207;53.060;18.726;2023-01-27T02:16:53;101210.13;;;-0.75;100.00
51147;BME280;37207;53.060;18.726;2023-01-27T02:19:25;101210.06;;;-0.75;100.00
51147;BME280;37207;53.060;18.726;2023-01-27T02:21:55;101205.10;;;-0.76;100.00
51147;BME280;37207;53.060;18.726;2023-01-27T02:24:37;101206.04;;;-0.76;100.00
51147;BME280;37207;53.060;18.726;2023-01-27T02:27:08;101210.14;;;-0.76;100.00
51147;BME280;37207;53.060;18.726;2023-01-27T02:29:34;101218.42;;;-0.75;100.00
51147;BME280;37207;53.060;18.726;2023-01-27T02:32:01;101213.93;;;-0.75;100.00
51147;BME280;37207;53.060;18.726;2023-01-27T02:34:30;101214.94;;;-0.75;100.00
51147;BME280;37207;53.060;18.726;2023-01-27T02:37:02;101217.96;;;-0.74;100.00
51147;BME280;37207;53.060;18.726;2023-01-27T02:39:36;101217.19;;;-0.75;100.00
51147;BME280;37207;53.060;18.726;2023-01-27T02:42:05;101213.02;;;-0.76;100.00
51147;BME280;37207;53.060;18.726;2023-01-27T02:44:32;101216.96;;;-0.76;100.00
51147;BME280;37207;53.060;18.726;2023-01-27T02:46:59;101220.60;;;-0.76;100.00
51147;BME280;37207;53.060;18.726;2023-01-27T02:49:26;101225.02;;;-0.75;100.00
51147;BME280;37207;53.060;18.726;2023-01-27T02:51:52;101226.41;;;-0.75;100.00
51147;BME280;37207;53.060;18.726;2023-01-27T02:54:19;101217.90;;;-0.76;100.00
51147;BME280;37207;53.060;18.726;2023-01-27T02:56:46;101213.63;;;-0.76;100.00
51147;BME280;37207;53.060;18.726;2023-01-27T02:59:13;101216.58;;;-0.77;100.00
51147;BME280;37207;53.060;18.726;2023-01-27T03:01:41;101217.89;;;-0.77;100.00
51147;BME280;37207;53.060;18.726;2023-01-27T03:04:07;101222.15;;;-0.77;100.00
51147;BME280;37207;53.060;18.726;2023-01-27T03:06:37;101223.86;;;-0.77;100.00
51147;BME280;37207;53.060;18.726;2023-01-27T03:09:04;101226.49;;;-0.77;100.00
51147;BME280;37207;53.060;18.726;2023-01-27T03:11:31;101223.70;;;-0.77;100.00
51147;BME280;37207;53.060;18.726;2023-01-27T03:14:17;101223.48;;;-0.77;100.00
51147;BME280;37207;53.060;18.726;2023-01-27T03:16:46;101220.21;;;-0.77;100.00
51147;BME280;37207;53.060;18.726;2023-01-27T03:19:32;101223.01;;;-0.76;100.00
51147;BME280;37207;53.060;18.726;2023-01-27T03:21:58;101221.53;;;-0.76;100.00
51147;BME280;37207;53.060;18.726;2023-01-27T03:24:29;101228.59;;;-0.76;100.00
51147;BME280;37207;53.060;18.726;2023-01-27T03:26:57;101223.55;;;-0.75;100.00
51147;BME280;37207;53.060;18.726;2023-01-27T03:29:33;101224.23;;;-0.75;100.00
51147;BME280;37207;53.060;18.726;2023-01-27T03:32:18;101226.41;;;-0.76;100.00
51147;BME280;37207;53.060;18.726;2023-01-27T03:34:54;101224.79;;;-0.76;100.00
51147;BME280;37207;53.060;18.726;2023-01-27T03:37:30;101220.05;;;-0.76;100.00
51147;BME280;37207;53.060;18.726;2023-01-27T03:40:16;101220.67;;;-0.77;100.00
51147;BME280;37207;53.060;18.726;2023-01-27T03:50:13;101223.70;;;-0.79;100.00
51147;BME280;37207;53.060;18.726;2023-01-27T03:52:45;101224.71;;;-0.80;99.96
51147;BME280;37207;53.060;18.726;2023-01-27T03:55:29;101223.40;;;-0.81;99.98
51147;BME280;37207;53.060;18.726;2023-01-27T03:57:56;101220.46;;;-0.81;99.99
51147;BME280;37207;53.060;18.726;2023-01-27T04:00:22;101217.05;;;-0.83;99.88
51147;BME280;37207;53.060;18.726;2023-01-27T04:02:49;101216.66;;;-0.83;99.96
51147;BME280;37207;53.060;18.726;2023-01-27T04:05:34;101212.55;;;-0.82;100.00
51147;BME280;37207;53.060;18.726;2023-01-27T04:08:20;101218.59;;;-0.81;99.97
51147;BME280;37207;53.060;18.726;2023-01-27T04:10:46;101222.16;;;-0.82;99.97
51147;BME280;37207;53.060;18.726;2023-01-27T04:13:33;101227.43;;;-0.81;99.98
51147;BME280;37207;53.060;18.726;2023-01-27T04:15:59;101235.95;;;-0.80;99.99
51147;BME280;37207;53.060;18.726;2023-01-27T04:18:26;101242.00;;;-0.80;99.99
51147;BME280;37207;53.060;18.726;2023-01-27T04:20:52;101245.80;;;-0.81;100.00
51147;BME280;37207;53.060;18.726;2023-01-27T04:23:19;101245.80;;;-0.81;99.96
51147;BME280;37207;53.060;18.726;2023-01-27T04:25:45;101250.45;;;-0.81;99.92
51147;BME280;37207;53.060;18.726;2023-01-27T04:28:14;101250.99;;;-0.82;99.98
51147;BME280;37207;53.060;18.726;2023-01-27T04:30:41;101259.91;;;-0.82;100.00
51147;BME280;37207;53.060;18.726;2023-01-27T04:33:07;101260.14;;;-0.82;99.96
51147;BME280;37207;53.060;18.726;2023-01-27T04:35:35;101265.27;;;-0.81;100.00
51147;BME280;37207;53.060;18.726;2023-01-27T04:38:02;101264.95;;;-0.81;99.87
51147;BME280;37207;53.060;18.726;2023-01-27T04:40:29;101266.19;;;-0.81;99.97
51147;BME280;37207;53.060;18.726;2023-01-27T04:42:55;101264.94;;;-0.81;99.97
51147;BME280;37207;53.060;18.726;2023-01-27T04:45:22;101265.48;;;-0.80;99.94
51147;BME280;37207;53.060;18.726;2023-01-27T04:47:48;101270.21;;;-0.80;100.00
51147;BME280;37207;53.060;18.726;2023-01-27T04:50:15;101276.88;;;-0.79;99.93
51147;BME280;37207;53.060;18.726;2023-01-27T04:52:41;101269.90;;;-0.79;100.00
51147;BME280;37207;53.060;18.726;2023-01-27T04:55:10;101273.47;;;-0.79;99.94
51147;BME280;37207;53.060;18.726;2023-01-27T04:57:37;101277.11;;;-0.79;99.99
51147;BME280;37207;53.060;18.726;2023-01-27T05:00:04;101280.75;;;-0.80;99.90
51147;BME280;37207;53.060;18.726;2023-01-27T05:02:31;101285.55;;;-0.83;99.93
51147;BME280;37207;53.060;18.726;2023-01-27T05:04:58;101286.88;;;-0.83;99.92
51147;BME280;37207;53.060;18.726;2023-01-27T05:07:24;101288.04;;;-0.84;99.89
51147;BME280;37207;53.060;18.726;2023-01-27T05:09:51;101287.49;;;-0.84;99.91
51147;BME280;37207;53.060;18.726;2023-01-27T05:12:17;101292.77;;;-0.85;99.93
51147;BME280;37207;53.060;18.726;2023-01-27T05:14:44;101292.77;;;-0.85;99.94
51147;BME280;37207;53.060;18.726;2023-01-27T05:17:10;101293.54;;;-0.84;99.85
51147;BME280;37207;53.060;18.726;2023-01-27T05:19:37;101291.60;;;-0.85;99.95
51147;BME280;37207;53.060;18.726;2023-01-27T05:22:03;101293.70;;;-0.86;99.85
51147;BME280;37207;53.060;18.726;2023-01-27T05:24:30;101293.96;;;-0.87;99.85
51147;BME280;37207;53.060;18.726;2023-01-27T05:26:56;101296.52;;;-0.88;99.72
51147;BME280;37207;53.060;18.726;2023-01-27T05:29:24;101298.45;;;-0.88;99.86
51147;BME280;37207;53.060;18.726;2023-01-27T05:31:50;101301.33;;;-0.90;99.88
51147;BME280;37207;53.060;18.726;2023-01-27T05:34:17;101301.40;;;-0.90;99.79
51147;BME280;37207;53.060;18.726;2023-01-27T05:36:43;101307.98;;;-0.90;99.55
51147;BME280;37207;53.060;18.726;2023-01-27T05:39:10;101306.66;;;-0.91;99.95
51147;BME280;37207;53.060;18.726;2023-01-27T05:41:37;101310.16;;;-0.91;99.87
51147;BME280;37207;53.060;18.726;2023-01-27T05:44:04;101311.39;;;-0.91;99.94
51147;BME280;37207;53.060;18.726;2023-01-27T05:46:31;101312.24;;;-0.91;99.81
51147;BME280;37207;53.060;18.726;2023-01-27T05:49:00;101312.48;;;-0.90;99.87
51147;BME280;37207;53.060;18.726;2023-01-27T05:51:29;101315.96;;;-0.90;99.81
51147;BME280;37207;53.060;18.726;2023-01-27T05:53:56;101313.56;;;-0.89;99.95
51147;BME280;37207;53.060;18.726;2023-01-27T05:56:24;101314.02;;;-0.88;99.82
51147;BME280;37207;53.060;18.726;2023-01-27T05:58:53;101319.84;;;-0.87;99.91
51147;BME280;37207;53.060;18.726;2023-01-27T06:01:23;101319.98;;;-0.86;99.96
51147;BME280;37207;53.060;18.726;2023-01-27T06:03:51;101318.66;;;-0.86;99.82
51147;BME280;37207;53.060;18.726;2023-01-27T06:06:19;101317.64;;;-0.85;99.98
51147;BME280;37207;53.060;18.726;2023-01-27T06:08:47;101321.05;;;-0.84;100.00
51147;BME280;37207;53.060;18.726;2023-01-27T06:11:15;101319.58;;;-0.84;99.95
51147;BME280;37207;53.060;18.726;2023-01-27T06:13:43;101321.37;;;-0.84;99.91
51147;BME280;37207;53.060;18.726;2023-01-27T06:16:11;101319.98;;;-0.85;99.75
51147;BME280;37207;53.060;18.726;2023-01-27T06:18:39;101321.90;;;-0.85;99.93
51147;BME280;37207;53.060;18.726;2023-01-27T06:21:07;101325.25;;;-0.85;99.89
51147;BME280;37207;53.060;18.726;2023-01-27T06:23:34;101332.13;;;-0.85;99.94
51147;BME280;37207;53.060;18.726;2023-01-27T06:26:10;101332.22;;;-0.85;99.88
51147;BME280;37207;53.060;18.726;2023-01-27T06:28:38;101334.39;;;-0.85;99.97
51147;BME280;37207;53.060;18.726;2023-01-27T06:31:13;101335.39;;;-0.85;100.00
51147;BME280;37207;53.060;18.726;2023-01-27T06:33:40;101334.61;;;-0.84;99.95
51147;BME280;37207;53.060;18.726;2023-01-27T06:36:10;101341.28;;;-0.84;99.94
51147;BME280;37207;53.060;18.726;2023-01-27T06:38:38;101345.70;;;-0.85;99.97
51147;BME280;37207;53.060;18.726;2023-01-27T06:41:05;101349.11;;;-0.84;99.95
51147;BME280;37207;53.060;18.726;2023-01-27T06:43:31;101353.14;;;-0.85;99.95
51147;BME280;37207;53.060;18.726;2023-01-27T06:45:58;101349.27;;;-0.84;99.98
51147;BME280;37207;53.060;18.726;2023-01-27T06:48:25;101352.13;;;-0.84;99.93
51147;BME280;37207;53.060;18.726;2023-01-27T06:50:53;101354.45;;;-0.85;100.00
51147;BME280;37207;53.060;18.726;2023-01-27T06:53:21;101354.85;;;-0.85;99.92
51147;BME280;37207;53.060;18.726;2023-01-27T06:55:48;101355.70;;;-0.85;99.98
51147;BME280;37207;53.060;18.726;2023-01-27T06:58:19;101353.38;;;-0.85;99.98
51147;BME280;37207;53.060;18.726;2023-01-27T07:00:46;101352.67;;;-0.84;100.00
51147;BME280;37207;53.060;18.726;2023-01-27T07:03:13;101356.94;;;-0.84;99.98
51147;BME280;37207;53.060;18.726;2023-01-27T07:05:40;101359.50;;;-0.83;99.98
51147;BME280;37207;53.060;18.726;2023-01-27T07:08:07;101366.86;;;-0.82;99.92
51147;BME280;37207;53.060;18.726;2023-01-27T07:10:34;101367.63;;;-0.81;99.94
51147;BME280;37207;53.060;18.726;2023-01-27T07:13:11;101371.59;;;-0.80;100.00
51147;BME280;37207;53.060;18.726;2023-01-27T07:15:38;101372.91;;;-0.78;99.98
51147;BME280;37207;53.060;18.726;2023-01-27T07:18:05;101374.85;;;-0.78;99.94
51147;BME280;37207;53.060;18.726;2023-01-27T07:20:32;101382.14;;;-0.78;99.89
51147;BME280;37207;53.060;18.726;2023-01-27T07:23:00;101379.50;;;-0.78;99.92
51147;BME280;37207;53.060;18.726;2023-01-27T07:25:28;101387.17;;;-0.77;99.86
51147;BME280;37207;53.060;18.726;2023-01-27T07:27:57;101385.92;;;-0.76;99.77
51147;BME280;37207;53.060;18.726;2023-01-27T07:30:25;101388.65;;;-0.74;99.98
51147;BME280;37207;53.060;18.726;2023-01-27T07:32:53;101386.79;;;-0.73;99.98
51147;BME280;37207;53.060;18.726;2023-01-27T07:35:21;101391.36;;;-0.70;99.96
51147;BME280;37207;53.060;18.726;2023-01-27T07:37:48;101394.98;;;-0.68;99.96
51147;BME280;37207;53.060;18.726;2023-01-27T07:40:15;101397.93;;;-0.67;100.00
51147;BME280;37207;53.060;18.726;2023-01-27T07:42:42;101398.23;;;-0.66;99.91
51147;BME280;37207;53.060;18.726;2023-01-27T07:45:09;101404.91;;;-0.64;100.00
51147;BME280;37207;53.060;18.726;2023-01-27T07:47:36;101404.52;;;-0.63;99.92
51147;BME280;37207;53.060;18.726;2023-01-27T07:50:03;101407.01;;;-0.62;99.97
51147;BME280;37207;53.060;18.726;2023-01-27T07:52:29;101411.50;;;-0.59;99.91
51147;BME280;37207;53.060;18.726;2023-01-27T07:54:56;101406.55;;;-0.57;99.93
51147;BME280;37207;53.060;18.726;2023-01-27T07:57:22;101408.72;;;-0.56;99.90
51147;BME280;37207;53.060;18.726;2023-01-27T07:59:49;101405.75;;;-0.53;100.00
51147;BME280;37207;53.060;18.726;2023-01-27T08:02:21;101407.14;;;-0.50;99.94
51147;BME280;37207;53.060;18.726;2023-01-27T08:04:49;101408.07;;;-0.47;99.88
51147;BME280;37207;53.060;18.726;2023-01-27T08:07:16;101409.08;;;-0.46;99.89
51147;BME280;37207;53.060;18.726;2023-01-27T08:09:43;101411.71;;;-0.44;99.92
51147;BME280;37207;53.060;18.726;2023-01-27T08:12:09;101411.10;;;-0.43;99.84
51147;BME280;37207;53.060;18.726;2023-01-27T08:14:36;101410.70;;;-0.43;99.84
51147;BME280;37207;53.060;18.726;2023-01-27T08:17:02;101408.84;;;-0.41;99.81
51147;BME280;37207;53.060;18.726;2023-01-27T08:19:29;101411.48;;;-0.38;99.91
51147;BME280;37207;53.060;18.726;2023-01-27T08:21:55;101418.67;;;-0.35;99.90
51147;BME280;37207;53.060;18.726;2023-01-27T08:24:22;101418.98;;;-0.31;99.73
51147;BME280;37207;53.060;18.726;2023-01-27T08:26:48;101422.55;;;-0.28;99.78
51147;BME280;37207;53.060;18.726;2023-01-27T08:29:15;101424.64;;;-0.24;99.80
51147;BME280;37207;53.060;18.726;2023-01-27T08:31:41;101429.29;;;-0.20;99.86
51147;BME280;37207;53.060;18.726;2023-01-27T08:34:08;101430.90;;;-0.16;99.78
51147;BME280;37207;53.060;18.726;2023-01-27T08:36:34;101435.77;;;-0.11;99.85
51147;BME280;37207;53.060;18.726;2023-01-27T08:39:01;101438.33;;;-0.07;99.87
51147;BME280;37207;53.060;18.726;2023-01-27T08:41:28;101439.10;;;-0.02;99.72
51147;BME280;37207;53.060;18.726;2023-01-27T08:43:55;101441.94;;;0.02;99.77
51147;BME280;37207;53.060;18.726;2023-01-27T08:46:21;101445.11;;;0.07;99.81
51147;BME280;37207;53.060;18.726;2023-01-27T08:48:48;101442.86;;;0.12;99.59
51147;BME280;37207;53.060;18.726;2023-01-27T08:51:16;101446.26;;;0.17;99.70
51147;BME280;37207;53.060;18.726;2023-01-27T08:53:43;101450.95;;;0.19;99.71
51147;BME280;37207;53.060;18.726;2023-01-27T08:56:12;101457.64;;;0.21;99.53
51147;BME280;37207;53.060;18.726;2023-01-27T08:58:39;101461.52;;;0.23;99.55
51147;BME280;37207;53.060;18.726;2023-01-27T09:01:07;101463.69;;;0.23;99.27
51147;BME280;37207;53.060;18.726;2023-01-27T09:03:34;101464.54;;;0.24;99.27
51147;BME280;37207;53.060;18.726;2023-01-27T09:06:01;101463.21;;;0.25;99.17
51147;BME280;37207;53.060;18.726;2023-01-27T09:08:27;101461.82;;;0.25;99.14
51147;BME280;37207;53.060;18.726;2023-01-27T09:10:54;101464.70;;;0.26;99.05
51147;BME280;37207;53.060;18.726;2023-01-27T09:13:21;101465.00;;;0.27;99.17
51147;BME280;37207;53.060;18.726;2023-01-27T09:15:52;101463.67;;;0.29;98.93
51147;BME280;37207;53.060;18.726;2023-01-27T09:18:19;101465.77;;;0.31;99.06
51147;BME280;37207;53.060;18.726;2023-01-27T09:20:45;101465.90;;;0.35;99.06
51147;BME280;37207;53.060;18.726;2023-01-27T09:23:12;101467.36;;;0.39;98.94
51147;BME280;37207;53.060;18.726;2023-01-27T09:25:38;101474.02;;;0.42;98.75
51147;BME280;37207;53.060;18.726;2023-01-27T09:28:05;101469.52;;;0.46;98.78
51147;BME280;37207;53.060;18.726;2023-01-27T09:30:35;101473.54;;;0.51;98.61
51147;BME280;37207;53.060;18.726;2023-01-27T09:33:01;101478.94;;;0.54;98.62
51147;BME280;37207;53.060;18.726;2023-01-27T09:35:34;101480.09;;;0.56;98.54
51147;BME280;37207;53.060;18.726;2023-01-27T09:38:03;101479.31;;;0.58;98.45
51147;BME280;37207;53.060;18.726;2023-01-27T09:49:10;101480.02;;;0.74;98.28
51147;BME280;37207;53.060;18.726;2023-01-27T09:51:50;101481.86;;;0.78;98.23
51147;BME280;37207;53.060;18.726;2023-01-27T09:54:29;101483.34;;;0.79;98.08
51147;BME280;37207;53.060;18.726;2023-01-27T09:57:17;101481.39;;;0.80;97.81
51147;BME280;37207;53.060;18.726;2023-01-27T10:02:35;101481.70;;;0.90;97.94
51147;BME280;37207;53.060;18.726;2023-01-27T10:13:23;101482.98;;;1.00;97.28
51147;BME280;37207;53.060;18.726;2023-01-27T10:24:21;101495.65;;;1.13;96.82
51147;BME280;37207;53.060;18.726;2023-01-27T10:27:01;101488.75;;;1.10;96.78
51147;BME280;37207;53.060;18.726;2023-01-27T10:29:36;101492.18;;;1.06;96.74
51147;BME280;37207;53.060;18.726;2023-01-27T10:32:09;101493.52;;;1.04;96.72
51147;BME280;37207;53.060;18.726;2023-01-27T10:48:40;101489.54;;;0.84;96.66
51147;BME280;37207;53.060;18.726;2023-01-27T10:51:13;101494.67;;;0.80;96.61
51147;BME280;37207;53.060;18.726;2023-01-27T10:53:54;101493.83;;;0.77;96.62
51147;BME280;37207;53.060;18.726;2023-01-27T10:56:31;101492.82;;;0.76;96.82
51147;BME280;37207;53.060;18.726;2023-01-27T11:01:39;101494.14;;;0.79;96.95
51147;BME280;37207;53.060;18.726;2023-01-27T11:06:42;101501.14;;;0.78;96.68
51147;BME280;37207;53.060;18.726;2023-01-27T11:09:13;101496.40;;;0.76;96.73
51147;BME280;37207;53.060;18.726;2023-01-27T11:11:42;101495.78;;;0.75;96.67
51147;BME280;37207;53.060;18.726;2023-01-27T11:16:48;101491.50;;;0.77;96.93
51147;BME280;37207;53.060;18.726;2023-01-27T11:19:32;101494.30;;;0.76;96.90
51147;BME280;37207;53.060;18.726;2023-01-27T11:22:02;101494.09;;;0.73;96.56
51147;BME280;37207;53.060;18.726;2023-01-27T11:24:44;101496.27;;;0.69;96.76
51147;BME280;37207;53.060;18.726;2023-01-27T11:27:22;101496.69;;;0.67;96.81
51147;BME280;37207;53.060;18.726;2023-01-27T11:29:58;101499.34;;;0.65;96.89
51147;BME280;37207;53.060;18.726;2023-01-27T11:35:15;101497.41;;;0.60;96.97
51147;BME280;37207;53.060;18.726;2023-01-27T11:37:48;101495.86;;;0.59;97.10
51147;BME280;37207;53.060;18.726;2023-01-27T11:40:31;101495.32;;;0.59;97.07
51147;BME280;37207;53.060;18.726;2023-01-27T11:42:59;101494.70;;;0.58;97.24
51147;BME280;37207;53.060;18.726;2023-01-27T11:45:27;101495.63;;;0.58;97.19
51147;BME280;37207;53.060;18.726;2023-01-27T11:47:59;101498.81;;;0.58;97.32
51147;BME280;37207;53.060;18.726;2023-01-27T11:50:33;101499.35;;;0.60;97.31
51147;BME280;37207;53.060;18.726;2023-01-27T11:55:39;101495.84;;;0.67;97.39
51147;BME280;37207;53.060;18.726;2023-01-27T11:58:21;101493.92;;;0.72;97.38
51147;BME280;37207;53.060;18.726;2023-01-27T12:00:55;101493.13;;;0.80;97.46
51147;BME280;37207;53.060;18.726;2023-01-27T12:03:35;101491.79;;;0.84;97.38
51147;BME280;37207;53.060;18.726;2023-01-27T12:06:13;101488.87;;;0.89;97.34
51147;BME280;37207;53.060;18.726;2023-01-27T12:08:42;101489.40;;;0.92;97.47
51147;BME280;37207;53.060;18.726;2023-01-27T12:14:01;101493.42;;;0.94;97.34
51147;BME280;37207;53.060;18.726;2023-01-27T12:16:47;101486.81;;;0.95;97.25
51147;BME280;37207;53.060;18.726;2023-01-27T12:19:27;101485.89;;;0.95;97.24
51147;BME280;37207;53.060;18.726;2023-01-27T12:22:00;101487.98;;;0.97;97.35
51147;BME280;37207;53.060;18.726;2023-01-27T12:24:49;101489.98;;;0.98;97.29
51147;BME280;37207;53.060;18.726;2023-01-27T12:27:30;101492.70;;;1.01;97.39
51147;BME280;37207;53.060;18.726;2023-01-27T12:30:03;101492.25;;;1.08;97.50
51147;BME280;37207;53.060;18.726;2023-01-27T12:32:39;101486.25;;;1.11;97.35
51147;BME280;37207;53.060;18.726;2023-01-27T12:37:44;101488.02;;;1.15;97.35
51147;BME280;37207;53.060;18.726;2023-01-27T12:40:20;101487.00;;;1.16;97.31
51147;BME280;37207;53.060;18.726;2023-01-27T12:43:10;101486.86;;;1.13;97.17
51147;BME280;37207;53.060;18.726;2023-01-27T12:45:38;101485.16;;;1.10;97.14
51147;BME280;37207;53.060;18.726;2023-01-27T12:50:40;101485.21;;;1.03;97.07
51147;BME280;37207;53.060;18.726;2023-01-27T12:55:51;101486.89;;;0.97;97.05
51147;BME280;37207;53.060;18.726;2023-01-27T13:00:59;101493.58;;;0.94;97.08
51147;BME280;37207;53.060;18.726;2023-01-27T13:03:26;101496.23;;;0.93;97.32
51147;BME280;37207;53.060;18.726;2023-01-27T13:05:55;101493.20;;;0.92;97.25
51147;BME280;37207;53.060;18.726;2023-01-27T13:08:24;101493.45;;;0.90;97.24
51147;BME280;37207;53.060;18.726;2023-01-27T13:11:00;101491.66;;;0.88;97.30
51147;BME280;37207;53.060;18.726;2023-01-27T13:13:28;101493.33;;;0.86;97.18
51147;BME280;37207;53.060;18.726;2023-01-27T13:16:16;101495.59;;;0.83;97.05
51147;BME280;37207;53.060;18.726;2023-01-27T13:18:52;101501.67;;;0.80;97.06
51147;BME280;37207;53.060;18.726;2023-01-27T13:21:23;101503.47;;;0.78;97.12
51147;BME280;37207;53.060;18.726;2023-01-27T13:23:52;101510.16;;;0.75;97.13
51147;BME280;37207;53.060;18.726;2023-01-27T13:26:30;101510.71;;;0.71;97.01
51147;BME280;37207;53.060;18.726;2023-01-27T13:31:53;101514.64;;;0.66;97.13
51147;BME280;37207;53.060;18.726;2023-01-27T13:34:46;101518.52;;;0.64;97.10
51147;BME280;37207;53.060;18.726;2023-01-27T13:37:33;101519.93;;;0.63;97.19
51147;BME280;37207;53.060;18.726;2023-01-27T13:40:21;101517.60;;;0.62;97.20
51147;BME280;37207;53.060;18.726;2023-01-27T13:42:53;101523.89;;;0.61;97.20
51147;BME280;37207;53.060;18.726;2023-01-27T13:45:24;101519.79;;;0.60;97.30
51147;BME280;37207;53.060;18.726;2023-01-27T13:47:57;101517.77;;;0.59;97.10
51147;BME280;37207;53.060;18.726;2023-01-27T13:50:32;101518.16;;;0.56;97.11
51147;BME280;37207;53.060;18.726;2023-01-27T13:53:01;101515.29;;;0.56;97.15
51147;BME280;37207;53.060;18.726;2023-01-27T14:07:24;101521.27;;;0.58;97.05
51147;BME280;37207;53.060;18.726;2023-01-27T14:09:55;101525.61;;;0.57;97.01
51147;BME280;37207;53.060;18.726;2023-01-27T14:12:47;101529.81;;;0.56;97.17
51147;BME280;37207;53.060;18.726;2023-01-27T14:15:29;101530.82;;;0.56;96.98
51147;BME280;37207;53.060;18.726;2023-01-27T14:29:06;101529.92;;;0.52;97.06
51147;BME280;37207;53.060;18.726;2023-01-27T14:31:56;101533.27;;;0.51;97.01
51147;BME280;37207;53.060;18.726;2023-01-27T14:34:41;101542.20;;;0.51;97.20
51147;BME280;37207;53.060;18.726;2023-01-27T14:37:24;101544.85;;;0.50;97.29
51147;BME280;37207;53.060;18.726;2023-01-27T14:42:50;101545.63;;;0.48;97.35